Time;durP1;ratioP1;P1;durP2;ratioP2;P2;SDS_P1;SDS_P2;PMS_P1;PMS_P2;Temp;Humidity;BMP_temperature;BMP_pressure;BME280_temperature;BME280_humidity;BME280_pressure;Samples;Min_cycle;Max_cycle;Signal;HPM_P1;HPM_P2
2021/05/18 00:00:47;;;;;;;19.52;8.45;;;;;;;;;;5110302;28;20055;-83
2021/05/18 00:03:15;;;;;;;24.40;8.05;;;;;;;;;;5111806;28;20071;-84
2021/05/18 00:05:51;;;;;;;63.47;9.73;;;;;;;;;;5111700;28;20047;-85
2021/05/18 00:08:22;;;;;;;104.47;10.07;;;;;;;;;;5112133;28;20495;-84
2021/05/18 00:13:42;;;;;;;51.13;8.05;;;;;;;;;;5112139;28;20048;-84
2021/05/18 00:16:09;;;;;;;203.57;15.02;;;;;;;;;;5111929;28;20040;-85
2021/05/18 00:18:37;;;;;;;61.60;9.18;;;;;;;;;;5110459;28;20570;-84
2021/05/18 00:21:05;;;;;;;79.00;9.68;;;;;;;;;;5111669;28;20048;-85
2021/05/18 00:23:34;;;;;;;43.05;10.32;;;;;;;;;;5111703;28;20047;-84
2021/05/18 00:26:01;;;;;;;11.27;7.18;;;;;;;;;;5110817;28;20055;-84
2021/05/18 00:28:28;;;;;;;19.15;7.80;;;;;;;;;;5110500;28;20048;-83
2021/05/18 00:31:00;;;;;;;17.95;7.75;;;;;;;;;;5110162;28;20109;-84
2021/05/18 00:33:29;;;;;;;19.92;7.35;;;;;;;;;;5109932;28;20125;-84
2021/05/18 00:35:57;;;;;;;14.45;7.32;;;;;;;;;;5106095;28;20081;-84
2021/05/18 00:38:24;;;;;;;11.85;7.53;;;;;;;;;;5114280;28;20051;-83
2021/05/18 00:40:51;;;;;;;12.70;7.72;;;;;;;;;;5115050;28;20530;-84
2021/05/18 00:43:19;;;;;;;15.38;7.82;;;;;;;;;;5114342;28;20047;-84
2021/05/18 00:45:47;;;;;;;16.10;8.88;;;;;;;;;;5115507;28;20055;-84
2021/05/18 00:48:15;;;;;;;16.13;7.68;;;;;;;;;;5114177;28;20094;-85
2021/05/18 00:50:44;;;;;;;14.77;8.45;;;;;;;;;;5114027;28;20167;-84
2021/05/18 00:53:12;;;;;;;14.55;8.55;;;;;;;;;;5093911;28;20047;-84
2021/05/18 00:55:49;;;;;;;18.70;9.23;;;;;;;;;;5092949;28;20135;-83
2021/05/18 01:01:05;;;;;;;20.63;8.13;;;;;;;;;;5096541;28;20097;-83
2021/05/18 01:03:34;;;;;;;15.95;8.68;;;;;;;;;;5111695;28;20556;-83
2021/05/18 01:08:51;;;;;;;12.77;6.78;;;;;;;;;;5114766;28;20052;-83
2021/05/18 01:11:21;;;;;;;13.95;8.52;;;;;;;;;;5115200;28;20082;-83
2021/05/18 01:14:02;;;;;;;10.07;6.47;;;;;;;;;;5114335;28;20097;-84
2021/05/18 01:16:30;;;;;;;10.05;6.50;;;;;;;;;;5113167;28;20791;-83
2021/05/18 01:18:58;;;;;;;11.63;6.43;;;;;;;;;;5108167;28;20071;-84
2021/05/18 01:21:26;;;;;;;13.73;7.30;;;;;;;;;;5114286;28;20048;-84
2021/05/18 01:23:54;;;;;;;16.02;7.63;;;;;;;;;;5114228;28;20052;-84
2021/05/18 01:26:21;;;;;;;18.25;9.27;;;;;;;;;;5114374;27;20135;-84
2021/05/18 01:28:49;;;;;;;14.32;7.70;;;;;;;;;;5114370;28;20124;-83
2021/05/18 01:31:19;;;;;;;11.15;6.18;;;;;;;;;;5113578;28;20043;-84
2021/05/18 01:33:47;;;;;;;18.35;8.02;;;;;;;;;;5109444;28;20101;-84
2021/05/18 01:36:22;;;;;;;12.90;7.68;;;;;;;;;;5106644;28;20047;-83
2021/05/18 01:39:02;;;;;;;14.82;7.93;;;;;;;;;;5114368;28;20043;-84
2021/05/18 01:44:23;;;;;;;15.30;7.30;;;;;;;;;;5113795;28;20155;-83
2021/05/18 01:46:50;;;;;;;16.55;8.02;;;;;;;;;;5112533;28;20074;-83
2021/05/18 01:49:17;;;;;;;20.67;8.57;;;;;;;;;;5112984;28;20097;-83
2021/05/18 01:52:00;;;;;;;20.90;8.50;;;;;;;;;;5113757;28;20535;-83
2021/05/18 01:54:29;;;;;;;16.80;8.23;;;;;;;;;;5113592;28;20047;-83
2021/05/18 01:59:30;;;;;;;19.02;9.63;;;;;;;;;;5114256;28;20089;-84
2021/05/18 02:02:04;;;;;;;16.20;9.02;;;;;;;;;;5112774;28;20126;-83
2021/05/18 02:04:36;;;;;;;22.70;9.15;;;;;;;;;;5114130;28;20044;-83
2021/05/18 02:07:05;;;;;;;21.55;10.25;;;;;;;;;;5105579;28;20051;-84
2021/05/18 02:09:33;;;;;;;20.52;10.20;;;;;;;;;;5113145;28;20109;-84
2021/05/18 02:12:02;;;;;;;24.85;9.93;;;;;;;;;;5112473;28;20085;-84
2021/05/18 02:14:31;;;;;;;21.77;10.60;;;;;;;;;;5114199;28;20101;-84
2021/05/18 02:17:07;;;;;;;27.42;11.02;;;;;;;;;;5112714;28;20097;-84
2021/05/18 02:25:21;;;;;;;19.83;10.27;;;;;;;;;;5113920;28;20101;-84
2021/05/18 02:27:49;;;;;;;26.98;11.15;;;;;;;;;;5112896;28;20074;-84
2021/05/18 02:30:18;;;;;;;24.10;10.77;;;;;;;;;;5112185;28;20082;-84
2021/05/18 02:32:46;;;;;;;21.88;10.82;;;;;;;;;;5113664;28;20108;-85
2021/05/18 02:35:15;;;;;;;22.38;10.25;;;;;;;;;;5112598;28;20073;-84
2021/05/18 02:37:44;;;;;;;27.00;11.48;;;;;;;;;;5112408;28;20073;-84
2021/05/18 02:40:40;;;;;;;19.55;10.68;;;;;;;;;;5113598;28;20525;-85
2021/05/18 02:43:11;;;;;;;20.63;9.95;;;;;;;;;;5112641;28;20400;-84
2021/05/18 02:53:39;;;;;;;22.50;10.63;;;;;;;;;;5112811;28;19920;-83
2021/05/18 02:56:32;;;;;;;24.80;9.90;;;;;;;;;;5113029;28;20047;-84
2021/05/18 02:59:17;;;;;;;26.77;10.52;;;;;;;;;;5111828;28;20734;-84
2021/05/18 03:02:07;;;;;;;24.15;10.63;;;;;;;;;;5093405;28;20048;-84
2021/05/18 03:04:34;;;;;;;27.10;10.35;;;;;;;;;;5112599;28;20472;-84
2021/05/18 03:07:01;;;;;;;27.90;11.05;;;;;;;;;;5113067;28;20055;-84
2021/05/18 03:09:29;;;;;;;30.33;10.85;;;;;;;;;;5113439;28;20051;-84
2021/05/18 03:11:57;;;;;;;28.38;11.80;;;;;;;;;;5112900;28;20093;-84
2021/05/18 03:14:24;;;;;;;31.27;10.93;;;;;;;;;;5112771;28;20052;-84
2021/05/18 03:16:55;;;;;;;23.63;10.60;;;;;;;;;;5112123;28;20082;-84
2021/05/18 03:19:22;;;;;;;26.88;11.35;;;;;;;;;;5112270;28;20098;-84
2021/05/18 03:21:49;;;;;;;28.00;10.93;;;;;;;;;;5105805;28;20484;-83
2021/05/18 03:24:25;;;;;;;23.17;11.07;;;;;;;;;;5112071;28;20129;-83
2021/05/18 03:26:52;;;;;;;32.95;13.15;;;;;;;;;;5111889;28;20465;-83
2021/05/18 03:29:31;;;;;;;27.45;12.77;;;;;;;;;;5110502;28;20455;-82
2021/05/18 03:34:46;;;;;;;26.85;12.55;;;;;;;;;;5111913;28;20052;-83
2021/05/18 03:40:06;;;;;;;34.28;13.52;;;;;;;;;;5112209;27;20078;-83
2021/05/18 03:42:47;;;;;;;36.10;13.68;;;;;;;;;;5111998;28;20055;-84
2021/05/18 03:45:24;;;;;;;24.75;12.05;;;;;;;;;;5091271;28;20055;-83
2021/05/18 03:53:44;;;;;;;31.95;13.07;;;;;;;;;;5111594;28;20130;-83
2021/05/18 04:04:31;;;;;;;32.22;13.52;;;;;;;;;;5111859;28;20051;-83
2021/05/18 04:18:15;;;;;;;31.70;14.30;;;;;;;;;;5110978;28;20047;-84
2021/05/18 04:21:06;;;;;;;37.13;15.50;;;;;;;;;;5109890;28;20885;-83
2021/05/18 04:43:08;;;;;;;43.25;19.48;;;;;;;;;;5106787;28;20040;-83
2021/05/18 04:51:33;;;;;;;40.83;19.50;;;;;;;;;;5107388;28;20098;-85
2021/05/18 04:59:33;;;;;;;59.60;30.60;;;;;;;;;;5090037;28;20056;-85
2021/05/18 05:07:06;;;;;;;72.55;24.83;;;;;;;;;;5109005;28;20738;-86
2021/05/18 05:09:41;;;;;;;81.10;27.27;;;;;;;;;;5111187;28;20075;-80
2021/05/18 05:12:32;;;;;;;71.15;23.67;;;;;;;;;;5110357;28;20180;-86
2021/05/18 05:15:00;;;;;;;70.22;23.27;;;;;;;;;;5109149;28;20079;-82
2021/05/18 05:17:28;;;;;;;85.50;23.95;;;;;;;;;;5102212;28;20082;-82
2021/05/18 05:19:55;;;;;;;80.82;25.80;;;;;;;;;;5102838;28;20083;-81
2021/05/18 05:22:22;;;;;;;70.85;21.23;;;;;;;;;;5114364;28;20171;-81
2021/05/18 05:24:50;;;;;;;75.85;21.92;;;;;;;;;;5113042;28;20404;-81
2021/05/18 05:27:18;;;;;;;79.18;24.15;;;;;;;;;;5112818;28;20448;-80
2021/05/18 05:30:00;;;;;;;92.18;24.10;;;;;;;;;;5113080;28;20786;-80
2021/05/18 05:32:27;;;;;;;71.15;21.23;;;;;;;;;;5114127;28;20051;-82
2021/05/18 05:34:54;;;;;;;67.05;19.73;;;;;;;;;;5100641;28;20462;-82
2021/05/18 05:37:22;;;;;;;51.65;17.60;;;;;;;;;;5106871;28;20471;-79
2021/05/18 05:39:50;;;;;;;52.92;16.02;;;;;;;;;;5112755;28;20054;-80
2021/05/18 05:42:20;;;;;;;37.88;13.95;;;;;;;;;;5113352;28;20100;-80
2021/05/18 05:44:48;;;;;;;47.22;16.65;;;;;;;;;;5114279;28;20075;-80
2021/05/18 05:47:17;;;;;;;50.85;16.90;;;;;;;;;;5113514;28;20113;-79
2021/05/18 05:49:46;;;;;;;52.22;16.75;;;;;;;;;;5114049;28;20104;-81
2021/05/18 05:52:19;;;;;;;58.88;18.08;;;;;;;;;;5113518;28;20051;-82
2021/05/18 05:54:47;;;;;;;56.17;18.55;;;;;;;;;;5113976;28;20101;-82
2021/05/18 05:57:15;;;;;;;51.42;15.98;;;;;;;;;;5114241;28;20101;-82
2021/05/18 05:59:43;;;;;;;48.85;16.73;;;;;;;;;;5113233;28;20074;-82
2021/05/18 06:02:10;;;;;;;51.35;16.92;;;;;;;;;;5114027;28;20109;-81
2021/05/18 06:04:45;;;;;;;48.53;16.13;;;;;;;;;;5113320;28;20086;-82
2021/05/18 06:07:12;;;;;;;42.15;14.48;;;;;;;;;;5113141;28;20078;-83
2021/05/18 06:09:39;;;;;;;35.88;14.30;;;;;;;;;;5119635;27;20456;-83
2021/05/18 06:14:54;;;;;;;43.45;15.30;;;;;;;;;;5114050;28;20051;-81
2021/05/18 06:17:52;;;;;;;51.47;16.75;;;;;;;;;;5103434;28;20134;-82
2021/05/18 06:34:34;;;;;;;37.55;15.07;;;;;;;;;;5107890;28;20054;-82
2021/05/18 06:47:37;;;;;;;44.75;15.05;;;;;;;;;;5099212;28;20071;-84
2021/05/18 06:52:45;;;;;;;45.83;15.93;;;;;;;;;;5098091;28;20056;-84
2021/05/18 06:55:15;;;;;;;41.08;15.93;;;;;;;;;;5097213;28;20083;-84
2021/05/18 06:57:48;;;;;;;42.53;15.98;;;;;;;;;;5111296;28;20043;-84
2021/05/18 07:00:20;;;;;;;43.90;15.23;;;;;;;;;;5110672;28;20075;-84
2021/05/18 07:02:48;;;;;;;40.30;16.17;;;;;;;;;;5113031;28;20407;-84
2021/05/18 07:10:45;;;;;;;40.00;16.40;;;;;;;;;;5100554;27;20568;-84
2021/05/18 07:13:14;;;;;;;42.00;16.30;;;;;;;;;;5108292;28;20055;-84
2021/05/18 07:15:41;;;;;;;35.70;15.68;;;;;;;;;;5108180;28;20052;-83
2021/05/18 07:18:08;;;;;;;41.22;15.18;;;;;;;;;;5110231;28;20096;-84
2021/05/18 07:20:36;;;;;;;38.63;16.35;;;;;;;;;;5111242;28;20051;-84
2021/05/18 07:23:14;;;;;;;34.42;14.63;;;;;;;;;;5109830;28;20055;-84
2021/05/18 07:25:41;;;;;;;41.55;15.50;;;;;;;;;;5109491;28;20585;-84
2021/05/18 07:28:09;;;;;;;36.97;16.20;;;;;;;;;;5109599;28;20047;-84
2021/05/18 07:30:37;;;;;;;31.73;14.20;;;;;;;;;;5109328;28;20056;-84
2021/05/18 07:33:04;;;;;;;36.13;15.57;;;;;;;;;;5102336;28;20083;-84
2021/05/18 07:35:32;;;;;;;33.85;16.00;;;;;;;;;;5110801;28;20073;-84
2021/05/18 07:37:59;;;;;;;37.25;13.52;;;;;;;;;;5109510;28;20051;-84
2021/05/18 07:40:26;;;;;;;37.08;14.65;;;;;;;;;;5109384;28;20082;-87
2021/05/18 07:42:56;;;;;;;34.95;15.05;;;;;;;;;;5109448;28;20051;-87
2021/05/18 07:45:28;;;;;;;29.73;14.13;;;;;;;;;;5109246;28;20047;-87
2021/05/18 07:59:20;;;;;;;30.15;11.82;;;;;;;;;;5092105;28;20080;-86
2021/05/18 08:07:24;;;;;;;20.42;9.80;;;;;;;;;;5105053;28;20138;-84
2021/05/18 08:09:55;;;;;;;18.15;8.77;;;;;;;;;;5110240;28;20055;-87
2021/05/18 08:12:22;;;;;;;16.75;8.90;;;;;;;;;;5110694;28;20112;-88
2021/05/18 08:20:57;;;;;;;12.90;6.88;;;;;;;;;;5110762;28;20051;-83
2021/05/18 08:48:24;;;;;;;9.20;4.93;;;;;;;;;;5110864;28;20697;-85
2021/05/18 09:44:10;;;;;;;4.85;3.05;;;;;;;;;;5114061;28;20048;-85
2021/05/18 10:14:44;;;;;;;6.55;3.20;;;;;;;;;;5114629;28;20152;-88
2021/05/18 10:17:04;;;;;;;9.40;3.15;;;;;;;;;;5105062;28;20484;-88
2021/05/18 10:25:11;;;;;;;4.57;2.63;;;;;;;;;;5108767;28;20890;-87
2021/05/18 10:27:59;;;;;;;6.20;2.65;;;;;;;;;;5111948;28;20481;-88
2021/05/18 10:35:41;;;;;;;8.30;3.22;;;;;;;;;;5112414;28;20044;-87
2021/05/18 10:38:11;;;;;;;5.60;2.15;;;;;;;;;;5112434;28;20052;-87
2021/05/18 10:40:42;;;;;;;10.50;2.20;;;;;;;;;;5112044;28;20051;-87
2021/05/18 10:43:11;;;;;;;10.30;2.88;;;;;;;;;;5111280;28;20435;-87
2021/05/18 10:45:53;;;;;;;6.38;2.60;;;;;;;;;;5112493;28;20044;-87
2021/05/18 10:48:24;;;;;;;3.78;2.33;;;;;;;;;;5109368;28;20112;-87
2021/05/18 10:50:51;;;;;;;3.83;2.30;;;;;;;;;;5111413;28;20146;-88
2021/05/18 10:53:21;;;;;;;6.70;2.70;;;;;;;;;;5111184;28;20052;-87
2021/05/18 10:56:11;;;;;;;5.28;2.33;;;;;;;;;;5110657;28;20136;-87
2021/05/18 10:58:39;;;;;;;6.05;2.60;;;;;;;;;;5112033;28;20063;-87
2021/05/18 11:01:10;;;;;;;4.28;2.78;;;;;;;;;;5111107;28;20079;-86
2021/05/18 11:03:38;;;;;;;6.35;2.40;;;;;;;;;;5111218;28;20079;-83
2021/05/18 11:06:08;;;;;;;6.05;2.38;;;;;;;;;;5110750;28;20133;-82
2021/05/18 11:08:36;;;;;;;8.57;2.90;;;;;;;;;;5097374;28;20108;-83
2021/05/18 11:11:04;;;;;;;7.63;2.35;;;;;;;;;;5111971;28;20048;-86
2021/05/18 11:13:37;;;;;;;5.68;2.50;;;;;;;;;;5110103;28;20702;-85
2021/05/18 11:16:14;;;;;;;4.43;2.70;;;;;;;;;;5111050;28;20067;-85
2021/05/18 11:18:47;;;;;;;4.63;2.17;;;;;;;;;;5105227;28;20055;-84
2021/05/18 11:21:15;;;;;;;6.50;2.88;;;;;;;;;;5112044;28;20063;-85
2021/05/18 11:23:42;;;;;;;6.43;2.95;;;;;;;;;;5095375;28;20048;-84
2021/05/18 11:26:12;;;;;;;6.22;2.97;;;;;;;;;;5108707;28;20446;-85
2021/05/18 11:28:43;;;;;;;4.32;3.17;;;;;;;;;;5107770;28;20044;-85
2021/05/18 11:31:13;;;;;;;6.60;2.60;;;;;;;;;;5110803;28;20126;-84
2021/05/18 11:33:46;;;;;;;5.90;2.95;;;;;;;;;;5111075;28;20449;-84
2021/05/18 11:36:15;;;;;;;6.47;3.00;;;;;;;;;;5110501;28;20067;-84
2021/05/18 11:38:50;;;;;;;4.40;2.60;;;;;;;;;;5110554;28;20097;-87
2021/05/18 11:41:21;;;;;;;3.90;2.83;;;;;;;;;;5111195;28;20079;-84
2021/05/18 11:43:48;;;;;;;6.63;2.60;;;;;;;;;;5111630;28;20543;-84
2021/05/18 11:46:16;;;;;;;17.02;3.45;;;;;;;;;;5111440;28;20458;-83
2021/05/18 11:48:53;;;;;;;4.70;2.70;;;;;;;;;;5111076;28;20039;-82
2021/05/18 11:51:21;;;;;;;4.50;2.88;;;;;;;;;;5110788;28;20047;-82
2021/05/18 11:53:53;;;;;;;8.52;2.95;;;;;;;;;;5109601;28;20613;-82
2021/05/18 11:56:23;;;;;;;9.63;3.10;;;;;;;;;;5110609;28;20142;-82
2021/05/18 11:59:00;;;;;;;7.57;3.15;;;;;;;;;;5106910;28;20079;-82
2021/05/18 12:01:28;;;;;;;5.82;3.38;;;;;;;;;;5098015;28;20131;-83
2021/05/18 12:03:59;;;;;;;10.93;3.35;;;;;;;;;;5089677;28;20070;-82
2021/05/18 12:06:27;;;;;;;5.15;3.35;;;;;;;;;;5093490;28;20822;-81
2021/05/18 12:08:58;;;;;;;6.20;4.40;;;;;;;;;;5109020;28;20146;-80
2021/05/18 12:11:25;;;;;;;4.80;3.17;;;;;;;;;;5111172;28;20082;-80
2021/05/18 12:13:56;;;;;;;10.07;3.90;;;;;;;;;;5110739;28;20036;-80
2021/05/18 12:16:27;;;;;;;6.75;2.80;;;;;;;;;;5111153;28;20159;-83
2021/05/18 12:18:56;;;;;;;4.80;2.83;;;;;;;;;;5109798;28;20601;-83
2021/05/18 12:21:26;;;;;;;6.13;2.50;;;;;;;;;;5111538;28;20444;-83
2021/05/18 12:24:04;;;;;;;7.68;1.95;;;;;;;;;;5110822;28;20229;-83
2021/05/18 12:26:50;;;;;;;4.00;2.05;;;;;;;;;;5110368;28;20058;-79
2021/05/18 12:29:46;;;;;;;4.72;2.05;;;;;;;;;;5111163;28;20047;-80
2021/05/18 12:32:14;;;;;;;9.18;2.47;;;;;;;;;;5112616;28;20040;-80
2021/05/18 12:34:41;;;;;;;5.22;2.05;;;;;;;;;;5113266;28;20051;-80
2021/05/18 12:37:09;;;;;;;5.07;2.30;;;;;;;;;;5115392;28;20035;-81
2021/05/18 12:39:43;;;;;;;9.27;2.00;;;;;;;;;;5112664;28;20048;-82
2021/05/18 12:42:14;;;;;;;;;;;;;;;;;;5119355;27;20509;-81
2021/05/18 12:44:55;;;;;;;4.07;2.10;;;;;;;;;;5112976;28;19965;-80
2021/05/18 12:47:27;;;;;;;4.13;2.50;;;;;;;;;;5112430;28;20054;-80
2021/05/18 12:49:56;;;;;;;4.28;2.28;;;;;;;;;;5110990;28;20036;-80
2021/05/18 12:52:34;;;;;;;5.97;2.25;;;;;;;;;;5108570;28;20809;-81
2021/05/18 12:55:13;;;;;;;4.78;2.42;;;;;;;;;;5104678;28;20051;-82
2021/05/18 12:57:51;;;;;;;4.68;2.05;;;;;;;;;;5109659;28;20051;-82
2021/05/18 13:00:22;;;;;;;4.53;2.10;;;;;;;;;;5112633;28;20080;-82
2021/05/18 13:02:53;;;;;;;6.05;2.25;;;;;;;;;;5098126;28;20645;-82
2021/05/18 13:05:28;;;;;;;3.42;1.58;;;;;;;;;;5113730;28;20053;-82
2021/05/18 13:08:17;;;;;;;8.07;2.65;;;;;;;;;;5113630;28;20083;-84
2021/05/18 13:13:44;;;;;;;5.50;2.00;;;;;;;;;;5094467;28;20087;-83
2021/05/18 13:16:16;;;;;;;2.80;1.98;;;;;;;;;;5099317;28;20048;-83
2021/05/18 13:18:57;;;;;;;6.68;2.03;;;;;;;;;;5111650;28;20054;-80
2021/05/18 13:21:28;;;;;;;4.82;2.13;;;;;;;;;;5113105;28;20062;-81
2021/05/18 13:26:27;;;;;;;6.63;2.42;;;;;;;;;;5113683;27;20083;-81
2021/05/18 13:29:01;;;;;;;4.20;2.63;;;;;;;;;;5112938;28;20126;-80
2021/05/18 13:31:39;;;;;;;10.80;4.18;;;;;;;;;;5113555;28;20044;-80
2021/05/18 13:34:08;;;;;;;7.65;3.53;;;;;;;;;;5111493;28;20043;-80
2021/05/18 13:36:47;;;;;;;6.90;3.30;;;;;;;;;;5098430;28;20121;-80
2021/05/18 13:39:15;;;;;;;10.93;3.08;;;;;;;;;;5092141;28;20083;-80
2021/05/18 13:41:43;;;;;;;4.55;2.90;;;;;;;;;;5099190;28;20385;-80
2021/05/18 13:44:11;;;;;;;6.00;2.60;;;;;;;;;;5112100;28;20051;-80
2021/05/18 13:46:45;;;;;;;10.27;3.05;;;;;;;;;;5110150;28;20753;-80
2021/05/18 13:49:13;;;;;;;8.45;2.88;;;;;;;;;;5099789;28;20120;-79
2021/05/18 13:51:43;;;;;;;5.10;2.63;;;;;;;;;;5112232;28;20132;-82
2021/05/18 13:54:32;;;;;;;6.40;2.40;;;;;;;;;;5113329;28;20048;-80
2021/05/18 13:57:00;;;;;;;6.95;2.38;;;;;;;;;;5113634;28;20054;-79
2021/05/18 13:59:28;;;;;;;9.98;2.70;;;;;;;;;;5113912;28;20054;-79
2021/05/18 14:02:06;;;;;;;12.35;3.20;;;;;;;;;;5104280;28;20055;-79
2021/05/18 14:04:35;;;;;;;6.53;3.05;;;;;;;;;;5105856;28;20058;-80
2021/05/18 14:10:20;;;;;;;4.40;2.75;;;;;;;;;;5065746;28;20052;-80
2021/05/18 14:12:49;;;;;;;7.32;2.88;;;;;;;;;;5100250;28;20054;-79
2021/05/18 14:15:16;;;;;;;8.00;3.00;;;;;;;;;;5102010;28;20138;-80
2021/05/18 14:17:44;;;;;;;5.55;2.58;;;;;;;;;;5108327;28;20064;-86
2021/05/18 14:20:16;;;;;;;5.22;2.65;;;;;;;;;;5108682;28;20079;-84
2021/05/18 14:22:45;;;;;;;5.65;2.92;;;;;;;;;;5107001;28;20056;-80
2021/05/18 14:25:12;;;;;;;5.63;2.80;;;;;;;;;;5108783;27;20051;-85
2021/05/18 14:27:58;;;;;;;5.27;2.60;;;;;;;;;;5107233;28;20051;-85
2021/05/18 14:30:33;;;;;;;6.22;3.08;;;;;;;;;;5106420;28;20346;-85
2021/05/18 14:33:03;;;;;;;6.55;3.45;;;;;;;;;;5106803;28;20047;-86
2021/05/18 14:35:31;;;;;;;7.60;4.00;;;;;;;;;;5105495;28;20043;-85
2021/05/18 14:38:07;;;;;;;6.60;3.05;;;;;;;;;;5107204;28;20710;-85
2021/05/18 14:46:00;;;;;;;7.65;4.68;;;;;;;;;;5106353;28;20043;-84
2021/05/18 14:56:34;;;;;;;12.52;6.40;;;;;;;;;;5105007;28;20043;-83
2021/05/18 14:59:01;;;;;;;7.28;4.85;;;;;;;;;;5103748;28;21182;-84
2021/05/18 15:01:28;;;;;;;8.48;4.28;;;;;;;;;;5105816;28;20096;-84
2021/05/18 15:03:58;;;;;;;13.73;5.82;;;;;;;;;;5104064;28;20047;-85
2021/05/18 15:06:27;;;;;;;5.75;4.55;;;;;;;;;;5104773;28;20040;-85
2021/05/18 15:09:04;;;;;;;15.15;5.13;;;;;;;;;;5105473;28;20047;-85
2021/05/18 15:11:43;;;;;;;12.70;5.15;;;;;;;;;;5105441;28;20048;-84
2021/05/18 15:14:12;;;;;;;26.00;13.30;;;;;;;;;;5105163;28;20075;-84
2021/05/18 15:17:01;;;;;;;13.65;5.80;;;;;;;;;;5098271;28;20054;-78
2021/05/18 15:19:30;;;;;;;11.95;5.35;;;;;;;;;;5099439;28;20162;-77
2021/05/18 15:21:59;;;;;;;12.10;4.72;;;;;;;;;;5098829;28;20059;-78
2021/05/18 15:24:28;;;;;;;13.10;5.93;;;;;;;;;;5099452;28;20490;-76
2021/05/18 15:26:56;;;;;;;10.88;5.32;;;;;;;;;;5096831;28;20138;-79
2021/05/18 15:29:23;;;;;;;8.27;4.50;;;;;;;;;;5096782;28;20074;-77
2021/05/18 15:31:51;;;;;;;8.82;4.22;;;;;;;;;;5099309;28;20159;-78
2021/05/18 15:34:20;;;;;;;10.60;4.68;;;;;;;;;;5109373;28;20098;-80
2021/05/18 15:36:49;;;;;;;11.77;4.28;;;;;;;;;;5105389;28;20190;-83
2021/05/18 15:39:19;;;;;;;8.65;4.93;;;;;;;;;;5103811;28;20051;-82
2021/05/18 15:41:47;;;;;;;9.82;4.90;;;;;;;;;;5105481;28;20756;-82
2021/05/18 15:44:14;;;;;;;11.27;4.65;;;;;;;;;;5102782;28;20048;-81
2021/05/18 15:46:42;;;;;;;7.07;4.57;;;;;;;;;;5104473;28;20055;-77
2021/05/18 15:49:11;;;;;;;10.93;4.75;;;;;;;;;;5104424;28;20052;-85
2021/05/18 15:51:47;;;;;;;6.82;4.43;;;;;;;;;;5104166;28;20441;-82
2021/05/18 15:54:15;;;;;;;12.20;4.57;;;;;;;;;;5102777;28;20055;-83
2021/05/18 15:56:42;;;;;;;7.68;3.92;;;;;;;;;;5106381;28;20039;-82
2021/05/18 15:59:12;;;;;;;7.97;4.60;;;;;;;;;;5102591;28;20055;-82
2021/05/18 16:01:39;;;;;;;9.18;5.45;;;;;;;;;;5103461;28;20077;-78
2021/05/18 16:04:08;;;;;;;9.77;5.50;;;;;;;;;;5101624;28;20448;-88
2021/05/18 16:06:39;;;;;;;8.27;5.15;;;;;;;;;;5102735;28;20800;-84
2021/05/18 16:09:10;;;;;;;7.32;4.43;;;;;;;;;;5103505;28;20123;-84
2021/05/18 16:11:42;;;;;;;7.75;4.82;;;;;;;;;;5104663;28;20126;-84
2021/05/18 16:14:11;;;;;;;8.93;4.70;;;;;;;;;;5103354;28;20124;-85
2021/05/18 16:16:39;;;;;;;9.27;4.13;;;;;;;;;;5104435;28;20047;-86
2021/05/18 16:19:06;;;;;;;6.63;4.13;;;;;;;;;;5103924;28;20055;-85
2021/05/18 16:21:33;;;;;;;5.72;3.28;;;;;;;;;;5104263;28;20487;-86
2021/05/18 16:24:01;;;;;;;8.18;4.15;;;;;;;;;;5102244;28;20048;-87
2021/05/18 16:26:39;;;;;;;4.78;3.50;;;;;;;;;;5105382;28;20051;-88
2021/05/18 16:29:08;;;;;;;6.32;3.50;;;;;;;;;;5103793;28;20083;-88
2021/05/18 16:31:35;;;;;;;6.22;3.70;;;;;;;;;;5105573;28;20044;-88
2021/05/18 16:34:03;;;;;;;7.85;3.90;;;;;;;;;;5103741;28;20040;-87
2021/05/18 16:36:31;;;;;;;6.75;4.00;;;;;;;;;;5105980;28;20062;-88
2021/05/18 16:38:59;;;;;;;5.45;3.70;;;;;;;;;;5104041;28;20051;-89
2021/05/18 16:41:35;;;;;;;6.63;3.30;;;;;;;;;;5103652;28;20877;-88
2021/05/18 16:44:11;;;;;;;5.03;3.60;;;;;;;;;;5104853;28;20050;-88
2021/05/18 16:46:39;;;;;;;;;;;;;;;;;;5104624;28;20044;-88
2021/05/18 16:49:07;;;;;;;5.13;3.65;;;;;;;;;;5102498;28;19936;-87
2021/05/18 16:51:37;;;;;;;6.72;3.28;;;;;;;;;;5104288;28;20811;-88
2021/05/18 16:54:06;;;;;;;5.18;3.03;;;;;;;;;;5103714;28;20543;-88
2021/05/18 16:56:34;;;;;;;9.30;3.50;;;;;;;;;;5101837;28;20136;-88
2021/05/18 16:59:01;;;;;;;5.47;3.55;;;;;;;;;;5102481;28;20048;-82
2021/05/18 17:01:28;;;;;;;5.70;3.97;;;;;;;;;;5102165;28;20086;-82
2021/05/18 17:04:16;;;;;;;5.93;3.65;;;;;;;;;;5104796;28;20051;-83
2021/05/18 17:06:46;;;;;;;6.35;4.13;;;;;;;;;;5103790;28;20047;-80
2021/05/18 17:09:14;;;;;;;5.80;3.47;;;;;;;;;;5104825;28;20126;-79
2021/05/18 17:11:42;;;;;;;6.00;4.20;;;;;;;;;;5101925;28;20143;-80
2021/05/18 17:14:11;;;;;;;7.72;3.53;;;;;;;;;;5100413;28;20089;-79
2021/05/18 17:16:39;;;;;;;7.35;3.50;;;;;;;;;;5101403;28;20380;-80
2021/05/18 17:19:07;;;;;;;7.72;3.10;;;;;;;;;;5102610;28;20060;-81
2021/05/18 17:21:35;;;;;;;4.65;2.80;;;;;;;;;;5105738;28;20075;-81
2021/05/18 17:24:03;;;;;;;6.15;3.53;;;;;;;;;;5104883;28;20392;-80
2021/05/18 17:26:33;;;;;;;6.80;3.28;;;;;;;;;;5105510;28;20914;-80
2021/05/18 17:29:01;;;;;;;11.05;4.00;;;;;;;;;;5105180;28;20079;-82
2021/05/18 17:31:31;;;;;;;5.30;3.60;;;;;;;;;;5104643;28;20109;-78
2021/05/18 17:34:00;;;;;;;10.30;3.63;;;;;;;;;;5103445;28;20051;-79
2021/05/18 17:36:28;;;;;;;7.65;3.92;;;;;;;;;;5101768;28;20693;-79
2021/05/18 17:38:55;;;;;;;5.85;3.85;;;;;;;;;;5101916;28;20039;-77
2021/05/18 17:41:24;;;;;;;6.63;4.15;;;;;;;;;;5101400;28;21074;-78
2021/05/18 17:43:55;;;;;;;5.13;3.90;;;;;;;;;;5100548;28;20130;-78
2021/05/18 17:46:24;;;;;;;8.00;4.47;;;;;;;;;;5100800;28;20113;-75
2021/05/18 17:48:52;;;;;;;8.00;3.90;;;;;;;;;;5098227;28;20087;-76
2021/05/18 17:51:20;;;;;;;7.53;3.80;;;;;;;;;;5102338;28;20480;-74
2021/05/18 17:53:47;;;;;;;7.57;4.13;;;;;;;;;;5098131;28;20809;-75
2021/05/18 17:56:14;;;;;;;9.40;3.97;;;;;;;;;;5097763;28;20130;-75
2021/05/18 17:58:41;;;;;;;5.75;4.28;;;;;;;;;;5099015;28;20079;-74
2021/05/18 18:01:10;;;;;;;10.85;4.43;;;;;;;;;;5099681;28;20066;-78
2021/05/18 18:03:37;;;;;;;7.53;4.75;;;;;;;;;;5099897;28;20112;-75
2021/05/18 18:06:04;;;;;;;9.27;4.80;;;;;;;;;;5104453;28;20436;-80
2021/05/18 18:08:42;;;;;;;8.50;4.00;;;;;;;;;;5103893;28;20043;-80
2021/05/18 18:11:10;;;;;;;8.43;4.30;;;;;;;;;;5104125;28;20055;-81
2021/05/18 18:13:38;;;;;;;8.43;4.13;;;;;;;;;;5102664;28;20078;-83
2021/05/18 18:16:08;;;;;;;12.10;4.30;;;;;;;;;;5103456;28;20105;-81
2021/05/18 18:18:37;;;;;;;7.15;4.50;;;;;;;;;;5107596;28;20035;-82
2021/05/18 18:21:12;;;;;;;5.82;3.88;;;;;;;;;;5110133;28;20052;-81
2021/05/18 18:23:39;;;;;;;7.50;3.92;;;;;;;;;;5104101;28;20063;-82
2021/05/18 18:26:08;;;;;;;9.25;4.38;;;;;;;;;;5103752;28;20139;-82
2021/05/18 18:28:36;;;;;;;7.75;4.07;;;;;;;;;;5103507;28;20085;-81
2021/05/18 18:31:04;;;;;;;7.45;4.20;;;;;;;;;;5102108;28;20127;-81
2021/05/18 18:33:32;;;;;;;6.53;3.30;;;;;;;;;;5109693;28;20083;-80
2021/05/18 18:36:01;;;;;;;6.15;4.22;;;;;;;;;;5092226;28;20072;-81
2021/05/18 18:38:28;;;;;;;8.82;4.30;;;;;;;;;;5091193;28;20135;-81
2021/05/18 18:40:56;;;;;;;9.95;5.13;;;;;;;;;;5101527;28;20529;-81
2021/05/18 18:43:24;;;;;;;8.80;5.00;;;;;;;;;;5112532;27;20095;-82
2021/05/18 18:45:51;;;;;;;8.50;4.70;;;;;;;;;;5112416;28;20043;-82
2021/05/18 18:48:20;;;;;;;8.20;3.97;;;;;;;;;;5106391;28;20117;-82
2021/05/18 18:51:01;;;;;;;11.38;4.20;;;;;;;;;;5109249;28;20079;-83
2021/05/18 18:56:18;;;;;;;8.32;4.40;;;;;;;;;;5111957;28;20067;-83
2021/05/18 18:58:46;;;;;;;8.50;5.18;;;;;;;;;;5107184;28;20113;-79
2021/05/18 19:01:15;;;;;;;6.20;4.57;;;;;;;;;;5100243;28;20071;-78
2021/05/18 19:03:50;;;;;;;8.48;4.78;;;;;;;;;;5110853;28;20490;-79
2021/05/18 19:12:38;;;;;;;11.27;6.22;;;;;;;;;;5114004;28;20054;-79
2021/05/18 19:14:28;;;;;;;13.52;6.55;;;;;;;;;;5113863;28;20524;-78
2021/05/18 19:16:57;;;;;;;9.75;5.72;;;;;;;;;;5106977;28;20051;-79
2021/05/18 19:19:27;;;;;;;10.70;5.30;;;;;;;;;;5112930;28;20078;-78
2021/05/18 19:21:55;;;;;;;8.00;4.72;;;;;;;;;;5110274;28;20100;-78
2021/05/18 19:24:23;;;;;;;7.50;4.40;;;;;;;;;;5109084;28;20047;-79
2021/05/18 19:26:50;;;;;;;7.60;4.65;;;;;;;;;;5108872;28;20051;-78
2021/05/18 19:29:18;;;;;;;6.43;4.25;;;;;;;;;;5109018;28;20048;-79
2021/05/18 19:31:45;;;;;;;7.65;4.60;;;;;;;;;;5100544;28;20083;-79
2021/05/18 19:34:25;;;;;;;5.28;4.10;;;;;;;;;;5105514;28;20737;-79
2021/05/18 19:37:09;;;;;;;12.07;3.95;;;;;;;;;;5105649;28;20117;-79
2021/05/18 19:45:18;;;;;;;7.22;4.53;;;;;;;;;;5110114;28;20715;-79
2021/05/18 19:50:41;;;;;;;7.78;4.70;;;;;;;;;;5100736;28;20148;-79
2021/05/18 19:53:13;;;;;;;9.30;4.93;;;;;;;;;;5110032;28;20051;-79
2021/05/18 19:55:46;;;;;;;11.60;4.68;;;;;;;;;;5105232;28;20047;-79
2021/05/18 19:58:42;;;;;;;12.90;4.85;;;;;;;;;;5109043;28;20082;-79
2021/05/18 20:16:20;;;;;;;9.10;4.47;;;;;;;;;;5109132;28;20097;-77
2021/05/18 20:23:28;;;;;;;7.03;4.32;;;;;;;;;;5106475;28;20134;-77